Time;durP1;ratioP1;P1;durP2;ratioP2;P2;SDS_P1;SDS_P2;PMS_P1;PMS_P2;Temp;Humidity;BMP_temperature;BMP_pressure;BME280_temperature;BME280_humidity;BME280_pressure;Samples;Min_cycle;Max_cycle;Signal;HPM_P1;HPM_P2
2021/07/15 00:00:18;0.00;0.00;0.62;0.00;0.00;0.62;1.97;1.67;;;27.60;39.50;;;;;;2210634;62;20768;-64
2021/07/15 00:02:45;0.00;0.00;0.62;0.00;0.00;0.62;2.00;1.80;;;27.60;39.50;;;;;;2210472;62;20387;-63
2021/07/15 00:05:14;0.00;0.00;0.62;0.00;0.00;0.62;2.53;1.40;;;27.60;39.50;;;;;;2206564;62;20362;-63
2021/07/15 00:07:41;0.00;0.00;0.62;0.00;0.00;0.62;1.87;1.70;;;27.60;39.50;;;;;;2210552;62;20391;-63
2021/07/15 00:10:19;0.00;0.00;0.62;0.00;0.00;0.62;1.40;1.30;;;27.60;39.50;;;;;;2210373;62;20394;-61
2021/07/15 00:12:50;0.00;0.00;0.62;0.00;0.00;0.62;1.90;1.70;;;27.60;39.50;;;;;;2210478;62;20766;-62
2021/07/15 00:15:20;0.00;0.00;0.62;0.00;0.00;0.62;1.83;1.63;;;27.60;39.50;;;;;;2210504;62;20513;-61
2021/07/15 00:17:47;0.00;0.00;0.62;0.00;0.00;0.62;2.10;1.60;;;27.70;39.50;;;;;;2210215;62;20465;-61
2021/07/15 00:20:16;0.00;0.00;0.62;0.00;0.00;0.62;2.03;1.60;;;27.70;39.50;;;;;;2210452;62;20402;-62
2021/07/15 00:22:43;0.00;0.00;0.62;0.00;0.00;0.62;1.73;1.63;;;27.70;39.50;;;;;;2210440;62;20442;-61
2021/07/15 00:25:14;0.00;0.00;0.62;0.00;0.00;0.62;1.90;1.70;;;27.70;39.50;;;;;;2210268;62;20416;-62
2021/07/15 00:27:41;0.00;0.00;0.62;0.00;0.00;0.62;3.20;1.60;;;27.80;39.60;;;;;;2210364;62;20440;-62
2021/07/15 00:30:11;0.00;0.00;0.62;0.00;0.00;0.62;1.57;1.47;;;27.80;39.60;;;;;;2210488;62;20371;-62
2021/07/15 00:32:38;0.00;0.00;0.62;0.00;0.00;0.62;1.80;1.60;;;27.80;39.60;;;;;;2210334;62;20359;-61
2021/07/15 00:35:07;0.00;0.00;0.62;0.00;0.00;0.62;2.17;1.70;;;27.80;39.50;;;;;;2210259;62;20402;-60
2021/07/15 00:37:34;0.00;0.00;0.62;0.00;0.00;0.62;2.07;1.80;;;27.80;39.50;;;;;;2210354;62;20394;-61
2021/07/15 00:40:01;0.00;0.00;0.62;0.00;0.00;0.62;3.73;1.77;;;27.90;39.50;;;;;;2210261;62;20393;-60
2021/07/15 00:42:27;0.00;0.00;0.62;0.00;0.00;0.62;2.53;1.90;;;27.90;39.40;;;;;;2206663;62;20397;-61
2021/07/15 00:44:54;0.00;0.00;0.62;0.00;0.00;0.62;2.07;1.87;;;27.90;39.30;;;;;;2210470;62;20377;-61
2021/07/15 00:47:22;0.00;0.00;0.62;0.00;0.00;0.62;2.50;2.00;;;27.90;39.30;;;;;;2210107;62;20385;-61
2021/07/15 00:49:48;0.00;0.00;0.62;0.00;0.00;0.62;5.00;2.00;;;27.90;39.10;;;;;;2206634;62;20378;-62
2021/07/15 00:52:15;0.00;0.00;0.62;0.00;0.00;0.62;2.40;2.20;;;27.90;39.00;;;;;;2210418;62;20374;-62
2021/07/15 00:54:42;0.00;0.00;0.62;0.00;0.00;0.62;2.67;2.47;;;27.90;38.90;;;;;;2210173;62;20395;-62
2021/07/15 00:57:10;0.00;0.00;0.62;0.00;0.00;0.62;2.33;2.13;;;27.80;38.80;;;;;;2210203;62;20634;-62
2021/07/15 00:59:38;0.00;0.00;0.62;0.00;0.00;0.62;2.83;2.40;;;27.80;38.90;;;;;;2210380;62;20719;-62
2021/07/15 01:02:04;0.00;0.00;0.62;0.00;0.00;0.62;3.17;2.10;;;27.80;38.80;;;;;;2206379;62;20401;-62
2021/07/15 01:04:33;0.00;0.00;0.62;0.00;0.00;0.62;3.00;2.27;;;27.80;38.80;;;;;;2210341;62;20723;-62
2021/07/15 01:06:59;0.00;0.00;0.62;0.00;0.00;0.62;2.93;1.83;;;27.70;38.80;;;;;;2210421;62;20640;-61
2021/07/15 01:09:25;0.00;0.00;0.62;0.00;0.00;0.62;2.33;2.13;;;27.70;38.90;;;;;;2210118;62;20446;-60
2021/07/15 01:12:07;0.00;0.00;0.62;0.00;0.00;0.62;2.77;2.57;;;27.70;39.00;;;;;;2209995;62;20359;-61
2021/07/15 01:14:42;0.00;0.00;0.62;0.00;0.00;0.62;1.80;1.53;;;27.70;39.00;;;;;;2210477;62;20366;-60
2021/07/15 01:17:18;0.00;0.00;0.62;0.00;0.00;0.62;3.20;2.50;;;27.70;39.10;;;;;;2210129;62;20389;-63
2021/07/15 01:20:42;0.00;0.00;0.62;0.00;0.00;0.62;3.17;2.40;;;27.70;39.20;;;;;;2210187;62;20370;-63
2021/07/15 01:23:30;0.00;0.00;0.62;0.00;0.00;0.62;1.70;1.60;;;27.70;39.20;;;;;;2210165;62;20382;-63
2021/07/15 01:26:18;0.00;0.00;0.62;0.00;0.00;0.62;2.07;1.87;;;27.70;39.30;;;;;;2210160;62;20363;-62
2021/07/15 01:29:12;0.00;0.00;0.62;0.00;0.00;0.62;2.07;1.87;;;27.70;39.30;;;;;;2210473;62;20366;-63
2021/07/15 01:31:43;0.00;0.00;0.62;0.00;0.00;0.62;2.63;1.63;;;27.70;39.30;;;;;;2210070;62;20363;-62
2021/07/15 01:34:14;0.00;0.00;0.62;0.00;0.00;0.62;2.30;2.00;;;27.70;39.30;;;;;;2210270;62;20367;-63
2021/07/15 01:36:45;0.00;0.00;0.62;0.00;0.00;0.62;1.93;1.73;;;27.70;39.30;;;;;;2210292;62;20451;-63
2021/07/15 01:39:13;0.00;0.00;0.62;0.00;0.00;0.62;2.90;2.10;;;27.80;39.50;;;;;;2210093;62;20491;-62
2021/07/15 01:41:45;0.00;0.00;0.62;0.00;0.00;0.62;1.90;1.70;;;27.80;39.50;;;;;;2210030;62;20505;-62
2021/07/15 01:44:17;0.00;0.00;0.62;0.00;0.00;0.62;1.90;1.67;;;27.80;39.50;;;;;;2210357;62;20363;-61
2021/07/15 01:46:46;0.00;0.00;0.62;0.00;0.00;0.62;2.30;1.83;;;27.80;39.50;;;;;;2209981;62;20387;-63
2021/07/15 01:49:13;0.00;0.00;0.62;0.00;0.00;0.62;1.70;1.60;;;27.80;39.40;;;;;;2210107;62;20381;-60
2021/07/15 01:51:41;0.00;0.00;0.62;0.00;0.00;0.62;2.40;1.57;;;27.90;39.40;;;;;;2206513;62;20359;-63
2021/07/15 01:54:08;0.00;0.00;0.62;0.00;0.00;0.62;2.17;1.97;;;27.90;39.40;;;;;;2210088;62;20373;-63
2021/07/15 01:56:37;0.00;0.00;0.62;0.00;0.00;0.62;2.00;1.80;;;27.90;39.40;;;;;;2206410;62;20393;-62
2021/07/15 01:59:06;0.00;0.00;0.62;0.00;0.00;0.62;1.70;1.47;;;27.90;39.40;;;;;;2210311;62;20363;-60
2021/07/15 02:01:35;0.00;0.00;0.62;0.00;0.00;0.62;1.63;1.53;;;27.90;39.40;;;;;;2209889;62;20698;-62
2021/07/15 02:04:05;0.00;0.00;0.62;0.00;0.00;0.62;1.93;1.43;;;27.90;39.40;;;;;;2210285;62;20597;-63
2021/07/15 02:06:33;0.00;0.00;0.62;0.00;0.00;0.62;2.33;2.13;;;27.90;39.40;;;;;;2210155;62;20469;-62
2021/07/15 02:09:01;0.00;0.00;0.62;0.00;0.00;0.62;2.20;1.60;;;28.00;39.50;;;;;;2210017;62;20614;-64
2021/07/15 02:11:33;0.00;0.00;0.62;0.00;0.00;0.62;3.10;1.97;;;28.00;39.50;;;;;;2210064;62;20369;-63
2021/07/15 02:14:03;0.00;0.00;0.62;0.00;0.00;0.62;2.23;1.33;;;28.00;39.50;;;;;;2210293;62;20482;-61
2021/07/15 02:16:31;0.00;0.00;0.62;0.00;0.00;0.62;2.10;1.50;;;28.00;39.50;;;;;;2209728;62;20416;-61
2021/07/15 02:18:59;0.00;0.00;0.62;0.00;0.00;0.62;1.70;1.57;;;28.00;39.50;;;;;;2210102;62;20367;-63
2021/07/15 02:21:30;0.00;0.00;0.62;0.00;0.00;0.62;2.30;1.60;;;28.00;39.40;;;;;;2210182;62;20398;-61
2021/07/15 02:23:57;0.00;0.00;0.62;0.00;0.00;0.62;1.93;1.50;;;28.00;40.10;;;;;;2210033;62;20377;-61
2021/07/15 02:26:25;0.00;0.00;0.62;0.00;0.00;0.62;2.23;2.00;;;28.00;39.40;;;;;;2209952;62;20382;-62
2021/07/15 02:28:51;0.00;0.00;0.62;0.00;0.00;0.62;2.03;1.73;;;28.10;39.50;;;;;;2206598;62;20371;-61
2021/07/15 02:31:26;0.00;0.00;0.62;0.00;0.00;0.62;1.53;1.43;;;28.10;39.50;;;;;;2209999;62;20416;-61
2021/07/15 02:33:58;0.00;0.00;0.62;0.00;0.00;0.62;1.87;1.60;;;28.10;39.50;;;;;;2210097;62;20584;-64
2021/07/15 02:36:30;0.00;0.00;0.62;0.00;0.00;0.62;3.27;1.70;;;28.10;39.40;;;;;;2210026;62;20386;-63
2021/07/15 02:38:59;0.00;0.00;0.62;0.00;0.00;0.62;1.80;1.60;;;28.10;39.40;;;;;;2210431;62;20382;-64
2021/07/15 02:41:26;0.00;0.00;0.62;0.00;0.00;0.62;2.00;1.80;;;28.10;39.50;;;;;;2210520;62;20398;-63
2021/07/15 02:43:52;0.00;0.00;0.62;0.00;0.00;0.62;1.70;1.43;;;28.10;39.40;;;;;;2210844;62;20379;-62
2021/07/15 02:46:18;0.00;0.00;0.62;0.00;0.00;0.62;2.03;1.80;;;28.10;39.50;;;;;;2210679;62;20393;-63
2021/07/15 02:48:45;0.00;0.00;0.62;0.00;0.00;0.62;1.53;1.20;;;28.10;39.40;;;;;;2210656;62;20495;-61
2021/07/15 02:51:11;0.00;0.00;0.62;0.00;0.00;0.62;2.17;1.47;;;28.10;39.40;;;;;;2210958;62;20363;-60
2021/07/15 02:53:40;0.00;0.00;0.62;0.00;0.00;0.62;2.67;1.83;;;28.20;39.50;;;;;;2210537;62;20401;-63
2021/07/15 02:56:16;0.00;0.00;0.62;0.00;0.00;0.62;3.47;1.70;;;28.20;39.50;;;;;;2210422;62;20371;-61
2021/07/15 02:59:00;0.00;0.00;0.62;0.00;0.00;0.62;2.20;1.77;;;28.20;39.50;;;;;;2210717;62;20457;-60
2021/07/15 03:01:31;0.00;0.00;0.62;0.00;0.00;0.62;2.17;1.67;;;28.20;39.40;;;;;;2210118;62;20436;-63
2021/07/15 03:04:06;0.00;0.00;0.62;0.00;0.00;0.62;1.70;1.53;;;28.20;39.40;;;;;;2210671;62;20412;-62
2021/07/15 03:06:37;0.00;0.00;0.62;0.00;0.00;0.62;3.50;1.70;;;28.20;39.40;;;;;;2206920;62;20734;-61
2021/07/15 03:09:11;0.00;0.00;0.62;0.00;0.00;0.62;2.43;1.70;;;28.20;39.50;;;;;;2210711;62;20402;-62
2021/07/15 03:11:43;0.00;0.00;0.62;0.00;0.00;0.62;2.10;1.90;;;28.20;39.40;;;;;;2210389;62;20367;-61
2021/07/15 03:14:10;0.00;0.00;0.62;0.00;0.00;0.62;1.70;1.60;;;28.20;40.10;;;;;;2210745;62;20366;-61
2021/07/15 03:16:41;0.00;0.00;0.62;0.00;0.00;0.62;3.83;2.00;;;28.20;39.40;;;;;;2210458;62;20641;-62
2021/07/15 03:19:08;0.00;0.00;0.62;0.00;0.00;0.62;2.20;2.00;;;28.20;39.40;;;;;;2210486;62;20398;-61
2021/07/15 03:21:39;0.00;0.00;0.62;0.00;0.00;0.62;2.30;1.63;;;28.20;39.40;;;;;;2210560;62;20528;-63
2021/07/15 03:24:10;0.00;0.00;0.62;0.00;0.00;0.62;3.00;1.70;;;28.30;39.50;;;;;;2207082;62;20371;-61
2021/07/15 03:26:37;0.00;0.00;0.62;0.00;0.00;0.62;2.40;1.90;;;28.20;39.40;;;;;;2210321;62;20448;-63
2021/07/15 03:29:05;0.00;0.00;0.62;0.00;0.00;0.62;1.80;1.60;;;28.20;39.30;;;;;;2210617;62;20371;-62
2021/07/15 03:31:33;0.00;0.00;0.62;0.00;0.00;0.62;2.50;2.13;;;28.30;39.40;;;;;;2210514;62;20459;-61
2021/07/15 03:34:00;0.00;0.00;0.62;0.00;0.00;0.62;1.60;1.50;;;28.30;39.40;;;;;;2210400;62;20378;-61
2021/07/15 03:36:27;0.00;0.00;0.62;0.00;0.00;0.62;1.73;1.40;;;28.30;39.40;;;;;;2210481;62;20739;-62
2021/07/15 03:38:55;0.00;0.00;0.62;0.00;0.00;0.62;2.43;1.80;;;28.30;39.40;;;;;;2210593;62;20387;-61
2021/07/15 03:41:24;0.00;0.00;0.62;0.00;0.00;0.62;2.30;1.73;;;28.30;39.40;;;;;;2210213;62;20762;-64
2021/07/15 03:43:51;0.00;0.00;0.62;0.00;0.00;0.62;2.00;1.80;;;28.30;39.40;;;;;;2210685;62;20443;-62
2021/07/15 03:46:18;0.00;0.00;0.62;0.00;0.00;0.62;5.27;2.27;;;28.30;39.30;;;;;;2210652;62;20386;-62
2021/07/15 03:48:46;0.00;0.00;0.62;0.00;0.00;0.62;4.27;1.97;;;28.30;39.30;;;;;;2206497;62;20442;-60
2021/07/15 03:51:14;0.00;0.00;0.62;0.00;0.00;0.62;3.20;2.30;;;28.30;39.10;;;;;;2210627;62;20363;-60
2021/07/15 03:53:45;0.00;0.00;0.62;0.00;0.00;0.62;5.33;2.50;;;28.30;38.60;;;;;;2210607;62;20378;-60
2021/07/15 03:56:14;0.00;0.00;0.62;0.00;0.00;0.62;4.10;2.67;;;28.20;38.30;;;;;;2210106;62;20753;-62
2021/07/15 03:58:46;0.00;0.00;0.62;0.00;0.00;0.62;4.63;2.20;;;28.20;38.10;;;;;;2210513;62;20373;-61
2021/07/15 04:01:15;0.00;0.00;0.62;0.00;0.00;0.62;4.17;2.30;;;28.10;37.90;;;;;;2206989;62;20469;-60
2021/07/15 04:03:45;0.00;0.00;0.62;0.00;0.00;0.62;2.57;2.07;;;28.00;37.90;;;;;;2206585;62;20722;-61
2021/07/15 04:06:15;0.00;0.00;0.62;0.00;0.00;0.62;2.87;1.87;;;28.00;38.20;;;;;;2210452;62;20366;-61
2021/07/15 04:08:43;0.00;0.00;0.62;0.00;0.00;0.62;3.90;2.10;;;27.90;38.30;;;;;;2210272;62;20491;-63
2021/07/15 04:11:14;0.00;0.00;0.62;0.00;0.00;0.62;2.50;1.90;;;27.90;38.60;;;;;;2210198;62;20243;-61
2021/07/15 04:13:43;0.00;0.00;0.62;0.00;0.00;0.62;3.70;2.17;;;27.90;38.70;;;;;;2210571;62;20398;-61
2021/07/15 04:16:29;0.00;0.00;0.62;0.00;0.00;0.62;3.00;2.27;;;27.90;38.60;;;;;;2210345;62;20406;-62
2021/07/15 04:19:01;0.00;0.00;0.62;0.00;0.00;0.62;2.83;1.60;;;27.90;38.60;;;;;;2207049;62;20393;-62
2021/07/15 04:21:28;0.00;0.00;0.62;0.00;0.00;0.62;2.53;2.10;;;27.90;38.70;;;;;;2206696;62;20397;-63
2021/07/15 04:23:56;0.00;0.00;0.62;0.00;0.00;0.62;2.60;2.33;;;27.90;38.80;;;;;;2210142;62;20595;-60
2021/07/15 04:26:24;0.00;0.00;0.62;0.00;0.00;0.62;3.83;2.10;;;27.90;38.80;;;;;;2210473;62;20698;-61
2021/07/15 04:28:52;0.00;0.00;0.62;0.00;0.00;0.62;2.00;1.80;;;27.90;38.80;;;;;;2210483;62;20375;-60
2021/07/15 04:31:47;0.00;0.00;0.62;0.00;0.00;0.62;2.60;1.80;;;27.90;38.80;;;;;;2206408;62;20367;-61
2021/07/15 04:34:14;0.00;0.00;0.62;0.00;0.00;0.62;4.23;2.30;;;27.90;38.90;;;;;;2206857;62;20503;-60
2021/07/15 04:36:42;0.00;0.00;0.62;0.00;0.00;0.62;4.10;2.20;;;27.90;38.60;;;;;;2206191;62;20409;-62
2021/07/15 04:39:08;0.00;0.00;0.62;0.00;0.00;0.62;6.83;2.67;;;27.90;38.30;;;;;;2210378;62;20375;-62
2021/07/15 04:41:35;0.00;0.00;0.62;0.00;0.00;0.62;3.80;2.23;;;27.90;38.30;;;;;;2210382;62;20394;-61
2021/07/15 04:44:04;0.00;0.00;0.62;0.00;0.00;0.62;4.13;2.97;;;27.80;38.10;;;;;;2210435;62;20428;-64
2021/07/15 04:46:33;0.00;0.00;0.62;0.00;0.00;0.62;3.53;2.50;;;27.70;38.00;;;;;;2206590;62;20464;-60
2021/07/15 04:48:59;0.00;0.00;0.62;0.00;0.00;0.62;3.50;2.03;;;27.70;38.20;;;;;;2206721;62;20694;-60
2021/07/15 04:51:27;0.00;0.00;0.62;0.00;0.00;0.62;5.23;2.50;;;27.70;38.30;;;;;;2209921;62;20375;-62
2021/07/15 04:53:55;0.00;0.00;0.62;0.00;0.00;0.62;4.97;2.37;;;27.60;38.30;;;;;;2237529;50;20404;-63
2021/07/15 04:56:22;0.00;0.00;0.62;0.00;0.00;0.62;5.10;2.30;;;27.60;38.40;;;;;;2236962;62;20758;-64
2021/07/15 04:58:51;0.00;0.00;0.62;0.00;0.00;0.62;2.77;2.30;;;27.50;38.40;;;;;;2237341;62;20587;-63
2021/07/15 05:01:19;0.00;0.00;0.62;0.00;0.00;0.62;4.00;2.50;;;27.50;38.50;;;;;;2237148;62;20636;-62
2021/07/15 05:03:46;0.00;0.00;0.62;0.00;0.00;0.62;4.07;2.53;;;27.50;38.50;;;;;;2237090;62;20364;-63
2021/07/15 05:06:14;0.00;0.00;0.62;0.00;0.00;0.62;4.90;2.67;;;27.40;38.40;;;;;;2237233;62;20369;-61
2021/07/15 05:08:40;0.00;0.00;0.62;0.00;0.00;0.62;5.10;2.73;;;27.40;38.30;;;;;;2237223;62;20595;-60
2021/07/15 05:11:08;0.00;0.00;0.62;0.00;0.00;0.62;4.67;2.80;;;27.40;38.40;;;;;;2237226;62;20589;-63
2021/07/15 05:13:35;0.00;0.00;0.62;0.00;0.00;0.62;4.30;2.17;;;27.40;38.40;;;;;;2237478;62;20696;-63
2021/07/15 05:16:01;0.00;0.00;0.62;0.00;0.00;0.62;3.50;2.60;;;27.30;38.40;;;;;;2237307;62;20392;-61
2021/07/15 05:18:29;0.00;0.00;0.62;0.00;0.00;0.62;2.57;2.37;;;27.20;38.50;;;;;;2237319;62;20595;-62
2021/07/15 05:20:55;0.00;0.00;0.62;0.00;0.00;0.62;4.63;2.53;;;27.20;38.50;;;;;;2240135;62;20374;-61
2021/07/15 05:23:22;0.00;0.00;0.62;0.00;0.00;0.62;2.83;2.40;;;27.20;38.50;;;;;;2237131;62;20380;-63
2021/07/15 05:25:51;0.00;0.00;0.62;0.00;0.00;0.62;5.10;2.20;;;27.10;38.40;;;;;;2237247;62;20645;-62
2021/07/15 05:28:17;0.00;0.00;0.62;0.00;0.00;0.62;3.47;2.50;;;27.10;38.50;;;;;;2237459;62;20376;-63
2021/07/15 05:30:44;0.00;0.00;0.62;0.00;0.00;0.62;3.50;2.40;;;27.10;38.60;;;;;;2237311;62;20447;-61
2021/07/15 05:33:10;0.00;0.00;0.62;0.00;0.00;0.62;6.80;3.80;;;27.00;38.70;;;;;;2236800;62;20352;-61
2021/07/15 05:35:39;0.00;0.00;0.62;0.00;0.00;0.62;3.63;3.00;;;27.00;38.90;;;;;;2237345;62;20758;-61
2021/07/15 05:38:05;0.00;0.00;0.62;0.00;0.00;0.62;6.17;2.43;;;26.90;38.90;;;;;;2237262;62;20384;-60
2021/07/15 05:40:32;0.00;0.00;0.62;0.00;0.00;0.62;6.13;2.40;;;26.90;39.00;;;;;;2237308;62;20371;-62
2021/07/15 05:42:59;0.00;0.00;0.62;0.00;0.00;0.62;5.77;2.80;;;26.90;39.20;;;;;;2237149;62;20754;-63
2021/07/15 05:45:26;0.00;0.00;0.62;0.00;0.00;0.62;3.10;2.33;;;26.80;39.30;;;;;;2237363;62;20372;-65
2021/07/15 05:47:53;0.00;0.00;0.62;0.00;0.00;0.62;3.63;2.40;;;26.80;39.30;;;;;;2237206;62;20455;-60
2021/07/15 05:50:19;0.00;0.00;0.62;0.00;0.00;0.62;7.90;2.40;;;26.80;39.40;;;;;;2237273;62;20444;-63
2021/07/15 05:52:47;0.00;0.00;0.62;0.00;0.00;0.62;3.80;2.53;;;26.80;39.50;;;;;;2237147;62;20443;-64
2021/07/15 05:55:13;0.00;0.00;0.62;0.00;0.00;0.62;7.30;2.40;;;26.80;39.60;;;;;;2237085;62;20578;-61
2021/07/15 05:57:40;0.00;0.00;0.62;0.00;0.00;0.62;3.60;2.10;;;26.80;39.60;;;;;;2237397;62;20383;-62
2021/07/15 06:00:11;0.00;0.00;0.62;0.00;0.00;0.62;3.60;2.17;;;26.80;39.60;;;;;;2237409;62;20604;-61
2021/07/15 06:02:37;0.00;0.00;0.62;0.00;0.00;0.62;5.73;1.90;;;26.80;39.60;;;;;;2236989;62;20610;-62
2021/07/15 06:05:06;0.00;0.00;0.62;0.00;0.00;0.62;3.37;2.00;;;26.80;39.60;;;;;;2237385;62;20363;-63
2021/07/15 06:07:34;0.00;0.00;0.62;0.00;0.00;0.62;4.10;2.53;;;26.80;39.70;;;;;;2237369;62;20412;-62
2021/07/15 06:10:03;0.00;0.00;0.62;0.00;0.00;0.62;2.47;1.83;;;26.80;39.70;;;;;;2237029;62;20371;-63
2021/07/15 06:12:30;0.00;0.00;0.62;0.00;0.00;0.62;1.93;1.67;;;26.90;39.90;;;;;;2237691;62;20364;-62
2021/07/15 06:14:56;0.00;0.00;0.62;0.00;0.00;0.62;5.77;2.17;;;26.90;39.90;;;;;;2237996;62;20352;-62
2021/07/15 06:17:22;0.00;0.00;0.62;0.00;0.00;0.62;2.37;1.90;;;26.90;39.90;;;;;;2237600;62;20384;-63
2021/07/15 06:19:51;0.00;0.00;0.62;0.00;0.00;0.62;4.30;1.90;;;26.90;39.80;;;;;;2238084;62;20408;-61
2021/07/15 06:22:20;0.00;0.00;0.62;0.00;0.00;0.62;2.10;1.70;;;26.90;39.90;;;;;;2237699;62;20459;-62
2021/07/15 06:24:46;0.00;0.00;0.62;0.00;0.00;0.62;4.13;2.10;;;26.90;39.90;;;;;;2237745;62;20364;-61
2021/07/15 06:27:14;0.00;0.00;0.62;0.00;0.00;0.62;3.50;2.00;;;26.90;40.00;;;;;;2238108;62;20500;-62
2021/07/15 06:29:43;0.00;0.00;0.62;0.00;0.00;0.62;5.30;2.10;;;26.90;40.00;;;;;;2237858;62;20364;-61
2021/07/15 06:32:09;0.00;0.00;0.62;0.00;0.00;0.62;3.80;1.90;;;27.00;40.10;;;;;;2237983;62;20694;-62
2021/07/15 06:34:36;0.00;0.00;0.62;0.00;0.00;0.62;3.43;1.70;;;27.00;40.20;;;;;;2238204;62;20360;-62
2021/07/15 06:37:08;0.00;0.00;0.62;0.00;0.00;0.62;2.17;1.77;;;27.00;40.30;;;;;;2237765;62;20383;-62
2021/07/15 06:39:37;0.00;0.00;0.62;0.00;0.00;0.62;2.00;1.80;;;27.00;40.30;;;;;;2237825;62;20356;-62
2021/07/15 06:42:04;0.00;0.00;0.62;0.00;0.00;0.62;1.90;1.67;;;27.10;40.30;;;;;;2238025;62;20756;-64
2021/07/15 06:44:32;0.00;0.00;0.62;0.00;0.00;0.62;2.80;1.90;;;27.10;40.20;;;;;;2237934;62;20360;-61
2021/07/15 06:46:59;0.00;0.00;0.62;0.00;0.00;0.62;3.90;1.90;;;27.10;40.10;;;;;;2237502;62;20469;-62
2021/07/15 06:49:26;0.00;0.00;0.62;0.00;0.00;0.62;4.73;2.23;;;27.20;40.30;;;;;;2238139;62;20696;-61
2021/07/15 06:51:53;0.00;0.00;0.62;0.00;0.00;0.62;2.60;1.80;;;27.20;40.30;;;;;;2237834;62;20356;-60
2021/07/15 06:54:20;0.00;0.00;0.62;0.00;0.00;0.62;6.67;2.10;;;27.20;40.30;;;;;;2237658;62;20372;-61
2021/07/15 06:56:46;0.00;0.00;0.62;0.00;0.00;0.62;2.87;1.90;;;27.30;40.40;;;;;;2238003;62;20380;-58
2021/07/15 06:59:12;0.00;0.00;0.62;0.00;0.00;0.62;2.13;1.90;;;27.30;40.30;;;;;;2237725;62;20353;-62
2021/07/15 07:01:40;0.00;0.00;0.62;0.00;0.00;0.62;3.27;2.40;;;27.30;40.30;;;;;;2237513;62;20384;-62
2021/07/15 07:04:06;0.00;0.00;0.62;0.00;0.00;0.62;3.87;2.10;;;27.40;40.30;;;;;;2238048;62;20364;-61
2021/07/15 07:06:33;0.00;0.00;0.62;0.00;0.00;0.62;4.60;1.93;;;27.40;40.30;;;;;;2237590;62;20647;-59
2021/07/15 07:09:00;0.00;0.00;0.62;0.00;0.00;0.62;2.37;2.17;;;27.40;40.20;;;;;;2237567;62;20360;-62
2021/07/15 07:11:26;0.00;0.00;0.62;0.00;0.00;0.62;8.30;1.80;;;27.40;40.20;;;;;;2237972;62;20367;-60
2021/07/15 07:13:52;0.00;0.00;0.62;0.00;0.00;0.62;2.30;2.00;;;27.40;40.20;;;;;;2237629;62;20383;-60
2021/07/15 07:16:19;0.00;0.00;0.62;0.00;0.00;0.62;2.00;1.80;;;27.50;40.20;;;;;;2237507;62;20382;-61
2021/07/15 07:18:47;0.00;0.00;0.62;0.00;0.00;0.62;3.40;2.10;;;27.50;40.10;;;;;;2238062;62;20602;-59
2021/07/15 07:21:13;0.00;0.00;0.62;0.00;0.00;0.62;2.20;1.90;;;27.60;40.00;;;;;;2237614;62;20447;-60
2021/07/15 07:23:39;0.00;0.00;0.62;0.00;0.00;0.62;2.83;2.50;;;27.60;40.20;;;;;;2237357;62;20369;-62
2021/07/15 07:26:07;0.00;0.00;0.62;0.00;0.00;0.62;2.30;1.83;;;27.60;39.90;;;;;;2238006;62;20361;-61
2021/07/15 07:28:33;0.00;0.00;0.62;0.00;0.00;0.62;2.17;1.83;;;27.60;39.80;;;;;;2237576;62;20364;-61
2021/07/15 07:31:00;0.00;0.00;0.62;0.00;0.00;0.62;2.57;1.80;;;27.70;39.90;;;;;;2237546;62;20361;-62
2021/07/15 07:33:26;0.00;0.00;0.62;0.00;0.00;0.62;2.20;1.57;;;27.70;39.90;;;;;;2238072;62;20359;-58
2021/07/15 07:35:54;0.00;0.00;0.62;0.00;0.00;0.62;4.53;1.60;;;27.70;39.80;;;;;;2237545;62;20391;-64
2021/07/15 07:38:20;0.00;0.00;0.62;0.00;0.00;0.62;3.57;1.50;;;27.70;39.70;;;;;;2237654;62;20475;-62
2021/07/15 07:40:47;0.00;0.00;0.62;0.00;0.00;0.62;1.80;1.43;;;27.70;39.70;;;;;;2238023;62;20376;-61
2021/07/15 07:43:14;0.00;0.00;0.62;0.00;0.00;0.62;2.83;1.53;;;27.80;39.60;;;;;;2240139;62;20388;-61
2021/07/15 07:45:41;0.00;0.00;0.62;0.00;0.00;0.62;1.60;1.30;;;27.80;39.50;;;;;;2237601;62;20360;-62
2021/07/15 07:48:07;0.00;0.00;0.62;0.00;0.00;0.62;6.80;1.73;;;27.90;39.50;;;;;;2238066;62;20456;-61
2021/07/15 07:50:33;0.00;0.00;0.62;0.00;0.00;0.62;2.80;1.63;;;27.90;39.40;;;;;;2237499;62;20476;-60
2021/07/15 07:53:01;0.00;0.00;0.62;0.00;0.00;0.62;1.70;1.20;;;27.90;39.40;;;;;;2237635;62;20376;-63
2021/07/15 07:55:28;0.00;0.00;0.62;0.00;0.00;0.62;1.73;1.40;;;28.00;39.50;;;;;;2237723;62;20375;-62
2021/07/15 07:57:54;0.00;0.00;0.62;0.00;0.00;0.62;3.57;1.90;;;28.00;39.30;;;;;;2237549;62;20384;-63
2021/07/15 08:00:21;0.00;0.00;0.62;0.00;0.00;0.62;2.27;1.50;;;28.00;39.30;;;;;;2237770;62;20361;-62
2021/07/15 08:02:48;0.00;0.00;0.62;0.00;0.00;0.62;1.53;1.20;;;28.00;39.30;;;;;;2237518;62;20743;-60
2021/07/15 08:05:19;0.00;0.00;0.62;0.00;0.00;0.62;2.90;1.73;;;28.00;39.20;;;;;;2237444;62;20395;-61
2021/07/15 08:07:47;0.00;0.00;0.62;0.00;0.00;0.62;3.07;1.40;;;28.00;39.10;;;;;;2237520;62;20384;-62
2021/07/15 08:10:15;0.00;0.00;0.62;0.00;0.00;0.62;2.33;1.50;;;28.10;39.20;;;;;;2237715;62;20631;-61
2021/07/15 08:12:42;0.00;0.00;0.62;0.00;0.00;0.62;1.67;1.50;;;28.10;39.00;;;;;;2237604;62;20357;-60
2021/07/15 08:15:13;0.00;0.00;0.62;0.00;0.00;0.62;1.57;1.47;;;28.10;38.90;;;;;;2237468;62;20412;-60
2021/07/15 08:17:39;0.00;0.00;0.62;0.00;0.00;0.62;1.50;1.20;;;28.10;38.90;;;;;;2237741;62;20382;-61
2021/07/15 08:20:09;0.00;0.00;0.62;0.00;0.00;0.62;1.77;1.43;;;28.10;38.80;;;;;;2237591;62;20352;-61
2021/07/15 08:22:35;0.00;0.00;0.62;0.00;0.00;0.62;1.97;1.30;;;28.20;38.80;;;;;;2237291;62;20391;-63
2021/07/15 08:25:02;0.00;0.00;0.62;0.00;0.00;0.62;2.20;1.50;;;28.20;38.70;;;;;;2240506;62;20360;-62
2021/07/15 08:27:30;0.00;0.00;0.62;0.00;0.00;0.62;1.50;1.20;;;28.20;38.60;;;;;;2237485;62;20387;-64
2021/07/15 08:29:57;0.00;0.00;0.62;0.00;0.00;0.62;2.60;1.67;;;28.20;38.50;;;;;;2237368;62;20449;-62
2021/07/15 08:32:23;0.00;0.00;0.62;0.00;0.00;0.62;2.57;1.27;;;28.20;38.40;;;;;;2237800;62;20367;-62
2021/07/15 08:34:49;0.00;0.00;0.62;0.00;0.00;0.62;2.07;1.20;;;28.30;38.50;;;;;;2237534;62;20740;-62
2021/07/15 08:37:16;0.00;0.00;0.62;0.00;0.00;0.62;1.80;1.20;;;28.30;38.30;;;;;;2237092;62;20435;-62
2021/07/15 08:39:42;0.00;0.00;0.62;0.00;0.00;0.62;1.80;1.20;;;28.30;38.20;;;;;;2237787;62;20673;-62
2021/07/15 08:42:10;0.00;0.00;0.62;0.00;0.00;0.62;5.00;1.30;;;28.30;38.30;;;;;;2237360;62;20396;-62
2021/07/15 08:44:39;0.00;0.00;0.62;0.00;0.00;0.62;2.00;1.30;;;28.30;38.30;;;;;;2237472;62;20356;-63
2021/07/15 08:47:07;0.00;0.00;0.62;0.00;0.00;0.62;2.10;1.10;;;28.30;38.20;;;;;;2237638;62;20384;-61
2021/07/15 08:49:34;0.00;0.00;0.62;0.00;0.00;0.62;3.97;1.20;;;28.30;38.20;;;;;;2237475;62;20755;-61
2021/07/15 08:52:00;0.00;0.00;0.62;0.00;0.00;0.62;1.83;1.40;;;28.30;38.10;;;;;;2237283;62;20447;-63
2021/07/15 08:54:55;0.00;0.00;0.62;0.00;0.00;0.62;2.00;1.40;;;28.40;38.00;;;;;;2237790;62;20361;-61
2021/07/15 08:57:15;0.00;0.00;0.62;0.00;0.00;0.62;3.00;1.63;;;28.40;38.00;;;;;;2237352;62;20435;-61
2021/07/15 08:59:43;0.00;0.00;0.62;0.00;0.00;0.62;3.00;1.43;;;28.40;38.00;;;;;;2237351;62;20367;-60
2021/07/15 09:02:14;0.00;0.00;0.62;0.00;0.00;0.62;2.40;1.30;;;28.40;38.00;;;;;;2237383;62;20384;-60
2021/07/15 09:04:41;0.00;0.00;0.62;0.00;0.00;0.62;1.90;1.40;;;28.40;38.00;;;;;;2237509;62;20364;-62
2021/07/15 09:07:08;0.00;0.00;0.62;0.00;0.00;0.62;1.63;1.00;;;28.40;38.00;;;;;;2237350;62;20464;-64
2021/07/15 09:09:34;0.00;0.00;0.62;0.00;0.00;0.62;2.40;1.47;;;28.40;38.00;;;;;;2237587;62;20364;-64
2021/07/15 09:12:01;0.00;0.00;0.62;0.00;0.00;0.62;2.17;1.40;;;28.40;37.80;;;;;;2237428;62;20655;-62
2021/07/15 09:14:27;0.00;0.00;0.62;0.00;0.00;0.62;1.63;1.13;;;28.40;37.80;;;;;;2237483;62;20382;-62
2021/07/15 09:16:57;0.00;0.00;0.62;0.00;0.00;0.62;2.13;1.30;;;28.40;37.90;;;;;;2236895;62;20384;-61
2021/07/15 09:19:25;0.00;0.00;0.62;0.00;0.00;0.62;2.70;1.40;;;28.40;37.80;;;;;;2239905;62;20368;-62
2021/07/15 09:21:52;0.00;0.00;0.62;0.00;0.00;0.62;2.00;1.43;;;28.40;37.90;;;;;;2240250;62;20404;-62
2021/07/15 09:24:29;0.00;0.00;0.62;0.00;0.00;0.62;1.60;1.50;;;28.50;37.60;;;;;;2237599;62;20364;-62
2021/07/15 09:26:55;0.00;0.00;0.62;0.00;0.00;0.62;3.67;1.40;;;28.50;37.50;;;;;;2237387;62;20630;-59
2021/07/15 09:29:22;0.00;0.00;0.62;0.00;0.00;0.62;1.83;1.23;;;28.50;37.60;;;;;;2237431;62;20443;-61
2021/07/15 09:31:54;0.00;0.00;0.62;0.00;0.00;0.62;1.80;1.47;;;28.50;37.70;;;;;;2237617;62;20360;-62
2021/07/15 09:34:23;0.00;0.00;0.62;0.00;0.00;0.62;1.60;1.17;;;28.50;37.60;;;;;;2237405;62;20368;-61
2021/07/15 09:36:50;0.00;0.00;0.62;0.00;0.00;0.62;1.40;1.13;;;28.50;37.50;;;;;;2237491;62;20388;-62
2021/07/15 09:39:19;0.00;0.00;0.62;0.00;0.00;0.62;1.70;1.30;;;28.60;37.30;;;;;;2237634;62;20440;-61
2021/07/15 09:42:08;0.00;0.00;0.62;0.00;0.00;0.62;1.50;1.07;;;28.60;37.30;;;;;;2237211;62;20607;-61
2021/07/15 09:44:35;0.00;0.00;0.62;0.00;0.00;0.62;1.60;1.20;;;28.60;37.10;;;;;;2237556;62;20356;-60
2021/07/15 09:47:02;0.00;0.00;0.62;0.00;0.00;0.62;1.30;1.10;;;28.60;37.90;;;;;;2237673;62;20463;-59